sensor_id;sensor_type;location;lat;lon;timestamp;P1;durP1;ratioP1;P2;durP2;ratioP2
39584;SDS011;25278;53.674;10.014;2022-12-07T04:10:56;9.75;;;3.67;;
39584;SDS011;25278;53.674;10.014;2022-12-07T04:13:21;7.03;;;4.03;;
39584;SDS011;25278;53.674;10.014;2022-12-07T04:15:47;5.30;;;3.40;;
39584;SDS011;25278;53.674;10.014;2022-12-07T04:18:13;5.82;;;3.58;;
39584;SDS011;25278;53.674;10.014;2022-12-07T04:20:38;9.95;;;4.28;;
39584;SDS011;25278;53.674;10.014;2022-12-07T04:23:04;7.10;;;4.80;;
39584;SDS011;25278;53.674;10.014;2022-12-07T04:25:29;9.20;;;4.45;;
39584;SDS011;25278;53.674;10.014;2022-12-07T04:27:55;9.05;;;4.00;;
39584;SDS011;25278;53.674;10.014;2022-12-07T04:30:20;8.30;;;4.53;;
39584;SDS011;25278;53.674;10.014;2022-12-07T04:32:46;8.82;;;4.97;;
39584;SDS011;25278;53.674;10.014;2022-12-07T04:35:11;13.27;;;6.63;;
39584;SDS011;25278;53.674;10.014;2022-12-07T04:37:37;11.13;;;4.80;;
39584;SDS011;25278;53.674;10.014;2022-12-07T04:40:05;7.93;;;5.10;;
39584;SDS011;25278;53.674;10.014;2022-12-07T04:42:32;8.75;;;5.30;;
39584;SDS011;25278;53.674;10.014;2022-12-07T04:44:58;7.97;;;4.85;;
39584;SDS011;25278;53.674;10.014;2022-12-07T04:47:23;11.93;;;6.13;;
39584;SDS011;25278;53.674;10.014;2022-12-07T04:49:49;9.15;;;5.88;;
39584;SDS011;25278;53.674;10.014;2022-12-07T04:52:14;9.27;;;4.70;;
39584;SDS011;25278;53.674;10.014;2022-12-07T04:54:40;11.35;;;5.30;;
39584;SDS011;25278;53.674;10.014;2022-12-07T04:57:05;9.75;;;4.82;;
39584;SDS011;25278;53.674;10.014;2022-12-07T04:59:31;20.63;;;9.38;;
39584;SDS011;25278;53.674;10.014;2022-12-07T05:01:56;9.68;;;5.68;;
39584;SDS011;25278;53.674;10.014;2022-12-07T05:04:22;7.78;;;5.47;;
39584;SDS011;25278;53.674;10.014;2022-12-07T05:06:47;8.88;;;5.68;;
39584;SDS011;25278;53.674;10.014;2022-12-07T05:09:13;6.95;;;5.18;;
39584;SDS011;25278;53.674;10.014;2022-12-07T05:11:38;7.13;;;5.20;;
39584;SDS011;25278;53.674;10.014;2022-12-07T05:14:25;8.48;;;5.38;;
39584;SDS011;25278;53.674;10.014;2022-12-07T05:16:50;10.15;;;6.20;;
39584;SDS011;25278;53.674;10.014;2022-12-07T05:19:16;9.38;;;5.60;;
39584;SDS011;25278;53.674;10.014;2022-12-07T05:21:43;9.90;;;6.05;;
39584;SDS011;25278;53.674;10.014;2022-12-07T05:24:10;7.82;;;6.25;;
39584;SDS011;25278;53.674;10.014;2022-12-07T05:26:36;8.95;;;6.43;;
39584;SDS011;25278;53.674;10.014;2022-12-07T05:29:02;11.18;;;7.15;;
39584;SDS011;25278;53.674;10.014;2022-12-07T05:31:28;11.85;;;6.38;;
39584;SDS011;25278;53.674;10.014;2022-12-07T05:33:54;10.60;;;6.53;;
39584;SDS011;25278;53.674;10.014;2022-12-07T05:36:20;14.52;;;7.72;;
39584;SDS011;25278;53.674;10.014;2022-12-07T05:38:46;12.75;;;7.53;;
39584;SDS011;25278;53.674;10.014;2022-12-07T05:41:13;13.35;;;7.28;;
39584;SDS011;25278;53.674;10.014;2022-12-07T05:43:59;8.73;;;6.28;;
39584;SDS011;25278;53.674;10.014;2022-12-07T05:46:24;9.75;;;7.35;;
39584;SDS011;25278;53.674;10.014;2022-12-07T05:48:50;13.10;;;7.15;;
39584;SDS011;25278;53.674;10.014;2022-12-07T05:51:15;9.73;;;6.78;;
39584;SDS011;25278;53.674;10.014;2022-12-07T05:53:41;9.50;;;6.90;;
39584;SDS011;25278;53.674;10.014;2022-12-07T05:56:07;16.42;;;7.43;;
39584;SDS011;25278;53.674;10.014;2022-12-07T05:58:32;21.45;;;12.93;;
39584;SDS011;25278;53.674;10.014;2022-12-07T06:01:16;10.32;;;7.13;;
39584;SDS011;25278;53.674;10.014;2022-12-07T06:03:42;12.13;;;7.65;;
39584;SDS011;25278;53.674;10.014;2022-12-07T06:06:07;13.20;;;7.72;;
39584;SDS011;25278;53.674;10.014;2022-12-07T06:08:33;10.23;;;7.15;;
39584;SDS011;25278;53.674;10.014;2022-12-07T06:10:58;12.57;;;7.18;;
39584;SDS011;25278;53.674;10.014;2022-12-07T06:13:42;11.15;;;6.95;;
39584;SDS011;25278;53.674;10.014;2022-12-07T06:16:08;13.77;;;7.35;;
39584;SDS011;25278;53.674;10.014;2022-12-07T06:18:33;10.20;;;7.07;;
39584;SDS011;25278;53.674;10.014;2022-12-07T06:20:59;11.75;;;7.20;;
39584;SDS011;25278;53.674;10.014;2022-12-07T06:23:25;9.65;;;6.65;;
39584;SDS011;25278;53.674;10.014;2022-12-07T06:25:50;18.65;;;8.05;;
39584;SDS011;25278;53.674;10.014;2022-12-07T06:28:16;10.27;;;8.00;;
39584;SDS011;25278;53.674;10.014;2022-12-07T06:30:41;12.50;;;7.38;;
39584;SDS011;25278;53.674;10.014;2022-12-07T06:33:07;13.38;;;7.18;;
39584;SDS011;25278;53.674;10.014;2022-12-07T06:35:32;13.63;;;8.68;;
39584;SDS011;25278;53.674;10.014;2022-12-07T06:37:58;14.32;;;8.20;;
39584;SDS011;25278;53.674;10.014;2022-12-07T06:40:24;14.00;;;8.35;;
39584;SDS011;25278;53.674;10.014;2022-12-07T06:42:50;9.90;;;7.53;;
39584;SDS011;25278;53.674;10.014;2022-12-07T06:45:15;14.82;;;8.05;;
39584;SDS011;25278;53.674;10.014;2022-12-07T06:47:41;13.00;;;7.15;;
39584;SDS011;25278;53.674;10.014;2022-12-07T06:50:06;12.93;;;7.55;;
39584;SDS011;25278;53.674;10.014;2022-12-07T06:52:32;12.88;;;7.28;;
39584;SDS011;25278;53.674;10.014;2022-12-07T06:54:58;14.40;;;7.88;;
39584;SDS011;25278;53.674;10.014;2022-12-07T06:57:24;10.65;;;7.28;;
39584;SDS011;25278;53.674;10.014;2022-12-07T06:59:50;10.50;;;7.07;;
39584;SDS011;25278;53.674;10.014;2022-12-07T07:02:15;11.70;;;7.18;;
39584;SDS011;25278;53.674;10.014;2022-12-07T07:04:41;11.65;;;6.93;;
39584;SDS011;25278;53.674;10.014;2022-12-07T07:07:07;10.45;;;6.63;;
39584;SDS011;25278;53.674;10.014;2022-12-07T07:09:32;8.80;;;5.78;;
39584;SDS011;25278;53.674;10.014;2022-12-07T07:11:58;12.05;;;6.88;;
39584;SDS011;25278;53.674;10.014;2022-12-07T07:14:24;25.73;;;16.85;;
39584;SDS011;25278;53.674;10.014;2022-12-07T07:16:49;14.45;;;6.63;;
39584;SDS011;25278;53.674;10.014;2022-12-07T07:19:15;12.13;;;6.20;;
39584;SDS011;25278;53.674;10.014;2022-12-07T07:21:40;14.60;;;6.10;;
39584;SDS011;25278;53.674;10.014;2022-12-07T07:24:06;8.45;;;5.15;;
39584;SDS011;25278;53.674;10.014;2022-12-07T07:26:32;11.57;;;5.85;;
39584;SDS011;25278;53.674;10.014;2022-12-07T07:28:57;15.73;;;6.28;;
39584;SDS011;25278;53.674;10.014;2022-12-07T07:31:23;14.95;;;6.15;;
39584;SDS011;25278;53.674;10.014;2022-12-07T07:33:48;9.52;;;5.10;;
39584;SDS011;25278;53.674;10.014;2022-12-07T07:36:14;10.38;;;5.05;;
39584;SDS011;25278;53.674;10.014;2022-12-07T07:38:39;9.55;;;5.03;;
39584;SDS011;25278;53.674;10.014;2022-12-07T07:41:05;7.80;;;4.97;;
39584;SDS011;25278;53.674;10.014;2022-12-07T07:43:30;13.60;;;5.32;;
39584;SDS011;25278;53.674;10.014;2022-12-07T07:45:57;7.85;;;4.78;;
39584;SDS011;25278;53.674;10.014;2022-12-07T07:48:23;17.83;;;5.00;;
39584;SDS011;25278;53.674;10.014;2022-12-07T07:50:50;13.48;;;4.63;;
39584;SDS011;25278;53.674;10.014;2022-12-07T07:53:15;8.13;;;4.53;;
39584;SDS011;25278;53.674;10.014;2022-12-07T07:55:41;12.00;;;4.35;;
39584;SDS011;25278;53.674;10.014;2022-12-07T07:58:11;8.50;;;4.18;;
39584;SDS011;25278;53.674;10.014;2022-12-07T08:00:37;10.73;;;5.63;;
39584;SDS011;25278;53.674;10.014;2022-12-07T08:03:02;8.55;;;3.88;;
39584;SDS011;25278;53.674;10.014;2022-12-07T08:05:28;7.63;;;3.90;;
39584;SDS011;25278;53.674;10.014;2022-12-07T08:07:53;11.10;;;4.22;;
39584;SDS011;25278;53.674;10.014;2022-12-07T08:10:19;12.48;;;3.30;;
39584;SDS011;25278;53.674;10.014;2022-12-07T08:12:44;9.32;;;3.55;;
39584;SDS011;25278;53.674;10.014;2022-12-07T08:15:29;10.40;;;3.35;;
39584;SDS011;25278;53.674;10.014;2022-12-07T08:17:55;9.50;;;3.20;;
39584;SDS011;25278;53.674;10.014;2022-12-07T08:20:21;6.07;;;3.45;;
39584;SDS011;25278;53.674;10.014;2022-12-07T08:22:46;5.38;;;3.05;;
39584;SDS011;25278;53.674;10.014;2022-12-07T08:25:12;13.57;;;2.78;;
39584;SDS011;25278;53.674;10.014;2022-12-07T08:27:37;8.02;;;3.40;;
39584;SDS011;25278;53.674;10.014;2022-12-07T08:30:03;6.53;;;3.00;;
39584;SDS011;25278;53.674;10.014;2022-12-07T08:32:29;5.45;;;2.53;;
39584;SDS011;25278;53.674;10.014;2022-12-07T08:34:54;9.95;;;2.40;;
39584;SDS011;25278;53.674;10.014;2022-12-07T08:37:20;4.90;;;2.13;;
39584;SDS011;25278;53.674;10.014;2022-12-07T08:39:45;7.18;;;2.50;;
39584;SDS011;25278;53.674;10.014;2022-12-07T08:42:11;10.00;;;2.53;;
39584;SDS011;25278;53.674;10.014;2022-12-07T08:44:36;9.75;;;3.65;;
39584;SDS011;25278;53.674;10.014;2022-12-07T08:47:02;9.93;;;2.13;;
39584;SDS011;25278;53.674;10.014;2022-12-07T08:49:31;7.80;;;2.00;;
39584;SDS011;25278;53.674;10.014;2022-12-07T08:52:02;7.78;;;2.80;;
39584;SDS011;25278;53.674;10.014;2022-12-07T08:54:30;5.97;;;2.65;;
39584;SDS011;25278;53.674;10.014;2022-12-07T08:56:55;9.25;;;2.47;;
39584;SDS011;25278;53.674;10.014;2022-12-07T08:59:21;12.18;;;2.85;;
39584;SDS011;25278;53.674;10.014;2022-12-07T09:01:48;10.88;;;2.60;;
39584;SDS011;25278;53.674;10.014;2022-12-07T09:04:13;7.55;;;2.67;;
39584;SDS011;25278;53.674;10.014;2022-12-07T09:06:40;12.27;;;2.67;;
39584;SDS011;25278;53.674;10.014;2022-12-07T09:09:07;6.90;;;2.25;;
39584;SDS011;25278;53.674;10.014;2022-12-07T09:11:34;11.32;;;2.30;;
39584;SDS011;25278;53.674;10.014;2022-12-07T09:14:00;4.80;;;1.83;;
39584;SDS011;25278;53.674;10.014;2022-12-07T09:16:25;10.07;;;2.55;;
39584;SDS011;25278;53.674;10.014;2022-12-07T09:18:51;6.40;;;2.10;;
39584;SDS011;25278;53.674;10.014;2022-12-07T09:21:16;13.82;;;3.03;;
39584;SDS011;25278;53.674;10.014;2022-12-07T09:23:42;7.10;;;2.13;;
39584;SDS011;25278;53.674;10.014;2022-12-07T09:26:07;10.60;;;2.53;;
39584;SDS011;25278;53.674;10.014;2022-12-07T09:28:33;9.50;;;1.73;;
39584;SDS011;25278;53.674;10.014;2022-12-07T09:30:59;8.27;;;2.22;;
39584;SDS011;25278;53.674;10.014;2022-12-07T09:33:25;15.23;;;2.45;;
39584;SDS011;25278;53.674;10.014;2022-12-07T09:35:51;5.30;;;2.42;;
39584;SDS011;25278;53.674;10.014;2022-12-07T09:38:17;8.50;;;2.72;;
39584;SDS011;25278;53.674;10.014;2022-12-07T09:40:44;9.90;;;2.55;;
39584;SDS011;25278;53.674;10.014;2022-12-07T09:43:13;10.95;;;2.60;;
39584;SDS011;25278;53.674;10.014;2022-12-07T09:45:41;5.15;;;2.28;;
39584;SDS011;25278;53.674;10.014;2022-12-07T09:48:13;5.32;;;2.50;;
39584;SDS011;25278;53.674;10.014;2022-12-07T09:50:44;7.13;;;2.20;;
39584;SDS011;25278;53.674;10.014;2022-12-07T09:53:24;6.05;;;2.55;;
39584;SDS011;25278;53.674;10.014;2022-12-07T09:55:52;8.20;;;2.33;;
39584;SDS011;25278;53.674;10.014;2022-12-07T09:58:20;17.67;;;3.65;;
39584;SDS011;25278;53.674;10.014;2022-12-07T10:00:49;8.25;;;2.10;;
39584;SDS011;25278;53.674;10.014;2022-12-07T10:05:44;8.93;;;1.80;;
39584;SDS011;25278;53.674;10.014;2022-12-07T10:08:12;9.70;;;2.25;;
39584;SDS011;25278;53.674;10.014;2022-12-07T10:10:39;6.88;;;2.10;;
39584;SDS011;25278;53.674;10.014;2022-12-07T10:13:09;9.35;;;1.90;;
39584;SDS011;25278;53.674;10.014;2022-12-07T10:15:40;15.65;;;2.35;;
39584;SDS011;25278;53.674;10.014;2022-12-07T10:21:06;8.70;;;1.90;;
39584;SDS011;25278;53.674;10.014;2022-12-07T10:23:38;8.35;;;1.90;;
39584;SDS011;25278;53.674;10.014;2022-12-07T10:26:19;9.55;;;2.58;;
39584;SDS011;25278;53.674;10.014;2022-12-07T10:28:45;10.32;;;2.05;;
39584;SDS011;25278;53.674;10.014;2022-12-07T10:31:15;14.40;;;2.05;;
39584;SDS011;25278;53.674;10.014;2022-12-07T10:33:59;8.32;;;1.92;;
39584;SDS011;25278;53.674;10.014;2022-12-07T10:36:27;6.38;;;1.63;;
39584;SDS011;25278;53.674;10.014;2022-12-07T10:41:40;3.28;;;1.50;;
39584;SDS011;25278;53.674;10.014;2022-12-07T10:44:25;7.43;;;1.92;;
39584;SDS011;25278;53.674;10.014;2022-12-07T10:50:41;6.88;;;1.48;;
39584;SDS011;25278;53.674;10.014;2022-12-07T10:55:41;12.57;;;2.13;;
39584;SDS011;25278;53.674;10.014;2022-12-07T11:03:55;10.52;;;2.05;;
39584;SDS011;25278;53.674;10.014;2022-12-07T11:06:51;7.47;;;1.60;;
39584;SDS011;25278;53.674;10.014;2022-12-07T11:09:29;8.82;;;2.00;;
39584;SDS011;25278;53.674;10.014;2022-12-07T11:12:40;10.40;;;2.25;;
39584;SDS011;25278;53.674;10.014;2022-12-07T11:15:21;8.32;;;1.90;;
39584;SDS011;25278;53.674;10.014;2022-12-07T11:17:54;10.93;;;2.15;;
39584;SDS011;25278;53.674;10.014;2022-12-07T11:34:22;7.53;;;1.85;;
39584;SDS011;25278;53.674;10.014;2022-12-07T11:39:35;11.50;;;2.35;;
39584;SDS011;25278;53.674;10.014;2022-12-07T11:42:14;4.97;;;1.50;;
39584;SDS011;25278;53.674;10.014;2022-12-07T11:47:57;14.10;;;2.45;;
39584;SDS011;25278;53.674;10.014;2022-12-07T11:51:00;11.40;;;2.20;;
39584;SDS011;25278;53.674;10.014;2022-12-07T11:53:26;9.55;;;2.45;;
39584;SDS011;25278;53.674;10.014;2022-12-07T11:56:02;9.75;;;2.28;;
39584;SDS011;25278;53.674;10.014;2022-12-07T12:01:11;11.70;;;2.53;;
39584;SDS011;25278;53.674;10.014;2022-12-07T12:03:40;11.43;;;2.30;;
39584;SDS011;25278;53.674;10.014;2022-12-07T12:06:06;9.27;;;2.45;;
39584;SDS011;25278;53.674;10.014;2022-12-07T12:08:36;6.57;;;2.33;;
39584;SDS011;25278;53.674;10.014;2022-12-07T12:14:22;9.32;;;2.15;;
39584;SDS011;25278;53.674;10.014;2022-12-07T12:20:18;8.57;;;1.60;;
39584;SDS011;25278;53.674;10.014;2022-12-07T12:25:46;8.32;;;1.83;;
39584;SDS011;25278;53.674;10.014;2022-12-07T12:28:24;7.63;;;1.77;;
39584;SDS011;25278;53.674;10.014;2022-12-07T12:33:34;9.77;;;1.75;;
39584;SDS011;25278;53.674;10.014;2022-12-07T12:46:52;7.03;;;1.42;;
39584;SDS011;25278;53.674;10.014;2022-12-07T12:49:34;7.22;;;1.65;;
39584;SDS011;25278;53.674;10.014;2022-12-07T12:57:32;6.60;;;1.38;;
39584;SDS011;25278;53.674;10.014;2022-12-07T12:59:58;8.00;;;2.25;;
39584;SDS011;25278;53.674;10.014;2022-12-07T13:02:28;7.72;;;1.67;;
39584;SDS011;25278;53.674;10.014;2022-12-07T13:04:56;5.18;;;1.50;;
39584;SDS011;25278;53.674;10.014;2022-12-07T13:12:59;4.55;;;1.20;;
39584;SDS011;25278;53.674;10.014;2022-12-07T13:28:47;3.00;;;1.30;;
39584;SDS011;25278;53.674;10.014;2022-12-07T13:33:53;5.38;;;1.33;;
39584;SDS011;25278;53.674;10.014;2022-12-07T13:36:20;4.72;;;1.25;;
39584;SDS011;25278;53.674;10.014;2022-12-07T13:38:52;2.42;;;0.90;;
39584;SDS011;25278;53.674;10.014;2022-12-07T13:41:23;4.18;;;1.05;;
39584;SDS011;25278;53.674;10.014;2022-12-07T13:43:55;5.15;;;1.40;;
39584;SDS011;25278;53.674;10.014;2022-12-07T13:46:32;6.45;;;1.30;;
39584;SDS011;25278;53.674;10.014;2022-12-07T13:49:23;5.22;;;1.25;;
39584;SDS011;25278;53.674;10.014;2022-12-07T13:51:54;5.55;;;1.75;;
39584;SDS011;25278;53.674;10.014;2022-12-07T13:54:31;3.22;;;1.02;;
39584;SDS011;25278;53.674;10.014;2022-12-07T13:56:57;4.05;;;1.40;;
39584;SDS011;25278;53.674;10.014;2022-12-07T13:59:24;6.65;;;1.60;;
39584;SDS011;25278;53.674;10.014;2022-12-07T14:01:51;3.53;;;1.10;;
39584;SDS011;25278;53.674;10.014;2022-12-07T14:04:18;5.93;;;1.30;;
39584;SDS011;25278;53.674;10.014;2022-12-07T14:06:54;3.25;;;1.10;;
39584;SDS011;25278;53.674;10.014;2022-12-07T14:09:21;4.15;;;1.00;;
39584;SDS011;25278;53.674;10.014;2022-12-07T14:11:47;6.18;;;0.80;;
39584;SDS011;25278;53.674;10.014;2022-12-07T14:14:18;7.47;;;1.35;;
39584;SDS011;25278;53.674;10.014;2022-12-07T14:19:47;5.22;;;0.98;;
39584;SDS011;25278;53.674;10.014;2022-12-07T14:22:36;6.35;;;1.20;;
39584;SDS011;25278;53.674;10.014;2022-12-07T14:28:09;6.50;;;1.63;;
39584;SDS011;25278;53.674;10.014;2022-12-07T14:30:55;6.00;;;1.17;;
39584;SDS011;25278;53.674;10.014;2022-12-07T14:33:21;6.90;;;1.45;;
39584;SDS011;25278;53.674;10.014;2022-12-07T14:35:48;4.22;;;1.20;;
39584;SDS011;25278;53.674;10.014;2022-12-07T14:38:14;4.05;;;1.00;;
39584;SDS011;25278;53.674;10.014;2022-12-07T14:40:40;5.47;;;1.05;;
39584;SDS011;25278;53.674;10.014;2022-12-07T14:43:09;10.05;;;1.60;;
39584;SDS011;25278;53.674;10.014;2022-12-07T14:45:40;10.52;;;1.30;;
39584;SDS011;25278;53.674;10.014;2022-12-07T14:48:05;6.32;;;1.45;;
39584;SDS011;25278;53.674;10.014;2022-12-07T14:50:35;8.10;;;1.55;;
39584;SDS011;25278;53.674;10.014;2022-12-07T14:53:06;3.40;;;0.90;;
39584;SDS011;25278;53.674;10.014;2022-12-07T14:55:37;5.70;;;1.67;;
39584;SDS011;25278;53.674;10.014;2022-12-07T14:58:03;4.25;;;1.80;;
39584;SDS011;25278;53.674;10.014;2022-12-07T15:00:28;9.52;;;1.73;;
39584;SDS011;25278;53.674;10.014;2022-12-07T15:02:54;8.85;;;1.95;;
39584;SDS011;25278;53.674;10.014;2022-12-07T15:05:20;8.15;;;2.20;;
39584;SDS011;25278;53.674;10.014;2022-12-07T15:07:46;4.57;;;1.70;;
39584;SDS011;25278;53.674;10.014;2022-12-07T15:10:20;4.13;;;1.13;;
39584;SDS011;25278;53.674;10.014;2022-12-07T15:12:48;6.55;;;1.10;;
39584;SDS011;25278;53.674;10.014;2022-12-07T15:15:14;4.78;;;1.40;;
39584;SDS011;25278;53.674;10.014;2022-12-07T15:17:39;2.97;;;1.35;;
39584;SDS011;25278;53.674;10.014;2022-12-07T15:20:07;5.18;;;1.42;;
39584;SDS011;25278;53.674;10.014;2022-12-07T15:22:36;13.15;;;2.15;;
39584;SDS011;25278;53.674;10.014;2022-12-07T15:25:02;13.63;;;2.72;;
39584;SDS011;25278;53.674;10.014;2022-12-07T15:27:29;11.05;;;1.70;;
39584;SDS011;25278;53.674;10.014;2022-12-07T15:29:55;4.43;;;1.70;;
39584;SDS011;25278;53.674;10.014;2022-12-07T15:32:20;11.35;;;1.75;;
39584;SDS011;25278;53.674;10.014;2022-12-07T15:34:47;17.40;;;3.13;;
39584;SDS011;25278;53.674;10.014;2022-12-07T15:37:14;6.70;;;1.30;;
39584;SDS011;25278;53.674;10.014;2022-12-07T15:39:40;3.38;;;1.25;;
39584;SDS011;25278;53.674;10.014;2022-12-07T15:42:06;6.20;;;1.40;;
39584;SDS011;25278;53.674;10.014;2022-12-07T15:44:31;5.35;;;1.55;;
39584;SDS011;25278;53.674;10.014;2022-12-07T15:47:15;5.50;;;1.33;;
39584;SDS011;25278;53.674;10.014;2022-12-07T15:49:41;10.38;;;1.40;;
39584;SDS011;25278;53.674;10.014;2022-12-07T15:52:07;6.03;;;1.48;;
39584;SDS011;25278;53.674;10.014;2022-12-07T15:54:33;8.73;;;1.65;;
39584;SDS011;25278;53.674;10.014;2022-12-07T15:56:58;4.55;;;1.42;;
39584;SDS011;25278;53.674;10.014;2022-12-07T15:59:25;6.35;;;2.30;;
39584;SDS011;25278;53.674;10.014;2022-12-07T16:01:51;4.88;;;1.80;;
39584;SDS011;25278;53.674;10.014;2022-12-07T16:04:17;3.63;;;1.70;;
39584;SDS011;25278;53.674;10.014;2022-12-07T16:06:42;6.25;;;1.90;;
39584;SDS011;25278;53.674;10.014;2022-12-07T16:09:08;7.38;;;1.63;;
39584;SDS011;25278;53.674;10.014;2022-12-07T16:11:33;10.32;;;2.30;;
39584;SDS011;25278;53.674;10.014;2022-12-07T16:13:59;6.03;;;1.63;;
39584;SDS011;25278;53.674;10.014;2022-12-07T16:16:25;11.95;;;2.15;;
39584;SDS011;25278;53.674;10.014;2022-12-07T16:18:50;6.80;;;2.35;;
39584;SDS011;25278;53.674;10.014;2022-12-07T16:21:17;7.07;;;2.00;;
39584;SDS011;25278;53.674;10.014;2022-12-07T16:23:43;5.03;;;2.20;;
39584;SDS011;25278;53.674;10.014;2022-12-07T16:26:13;9.82;;;1.70;;
39584;SDS011;25278;53.674;10.014;2022-12-07T16:28:40;8.02;;;2.30;;
39584;SDS011;25278;53.674;10.014;2022-12-07T16:31:08;12.02;;;3.72;;
39584;SDS011;25278;53.674;10.014;2022-12-07T16:33:36;6.10;;;3.25;;
39584;SDS011;25278;53.674;10.014;2022-12-07T16:36:04;8.00;;;2.38;;
39584;SDS011;25278;53.674;10.014;2022-12-07T16:38:31;5.55;;;2.70;;
39584;SDS011;25278;53.674;10.014;2022-12-07T16:40:57;11.25;;;3.05;;
39584;SDS011;25278;53.674;10.014;2022-12-07T16:43:22;5.45;;;2.83;;
39584;SDS011;25278;53.674;10.014;2022-12-07T16:45:48;5.43;;;2.92;;
39584;SDS011;25278;53.674;10.014;2022-12-07T16:48:14;9.77;;;2.90;;
39584;SDS011;25278;53.674;10.014;2022-12-07T16:50:40;7.55;;;3.42;;
39584;SDS011;25278;53.674;10.014;2022-12-07T16:53:10;6.10;;;2.70;;
39584;SDS011;25278;53.674;10.014;2022-12-07T16:55:40;6.68;;;2.83;;
39584;SDS011;25278;53.674;10.014;2022-12-07T16:58:08;5.78;;;2.33;;
39584;SDS011;25278;53.674;10.014;2022-12-07T17:00:35;4.45;;;2.83;;
39584;SDS011;25278;53.674;10.014;2022-12-07T17:03:02;8.60;;;3.03;;
39584;SDS011;25278;53.674;10.014;2022-12-07T17:05:28;5.20;;;2.83;;
39584;SDS011;25278;53.674;10.014;2022-12-07T17:07:54;6.68;;;2.88;;
39584;SDS011;25278;53.674;10.014;2022-12-07T17:10:21;5.97;;;3.08;;
39584;SDS011;25278;53.674;10.014;2022-12-07T17:12:47;5.45;;;3.40;;
39584;SDS011;25278;53.674;10.014;2022-12-07T17:15:13;7.88;;;2.92;;
39584;SDS011;25278;53.674;10.014;2022-12-07T17:17:42;7.80;;;3.60;;
39584;SDS011;25278;53.674;10.014;2022-12-07T17:20:09;16.52;;;8.98;;
39584;SDS011;25278;53.674;10.014;2022-12-07T17:22:34;11.10;;;5.22;;
39584;SDS011;25278;53.674;10.014;2022-12-07T17:25:00;8.38;;;4.07;;
39584;SDS011;25278;53.674;10.014;2022-12-07T17:27:26;7.43;;;4.15;;
39584;SDS011;25278;53.674;10.014;2022-12-07T17:29:51;15.60;;;5.10;;
39584;SDS011;25278;53.674;10.014;2022-12-07T17:32:17;9.40;;;5.50;;
39584;SDS011;25278;53.674;10.014;2022-12-07T17:34:42;17.08;;;8.82;;
39584;SDS011;25278;53.674;10.014;2022-12-07T17:37:08;19.67;;;11.32;;
39584;SDS011;25278;53.674;10.014;2022-12-07T17:39:34;27.15;;;13.93;;
39584;SDS011;25278;53.674;10.014;2022-12-07T17:41:59;17.48;;;8.63;;
39584;SDS011;25278;53.674;10.014;2022-12-07T17:44:43;16.52;;;9.20;;
39584;SDS011;25278;53.674;10.014;2022-12-07T17:47:09;13.25;;;6.03;;
39584;SDS011;25278;53.674;10.014;2022-12-07T17:49:35;17.58;;;5.95;;
39584;SDS011;25278;53.674;10.014;2022-12-07T17:52:00;14.57;;;6.15;;
39584;SDS011;25278;53.674;10.014;2022-12-07T17:54:44;9.30;;;5.05;;
39584;SDS011;25278;53.674;10.014;2022-12-07T17:57:10;11.82;;;4.38;;
39584;SDS011;25278;53.674;10.014;2022-12-07T17:59:35;9.88;;;5.00;;
39584;SDS011;25278;53.674;10.014;2022-12-07T18:02:02;15.32;;;5.88;;
39584;SDS011;25278;53.674;10.014;2022-12-07T18:04:27;9.75;;;5.47;;
39584;SDS011;25278;53.674;10.014;2022-12-07T18:06:53;27.88;;;15.05;;
39584;SDS011;25278;53.674;10.014;2022-12-07T18:09:19;17.48;;;9.48;;
39584;SDS011;25278;53.674;10.014;2022-12-07T18:11:45;13.25;;;7.25;;
39584;SDS011;25278;53.674;10.014;2022-12-07T18:14:11;13.00;;;6.97;;
39584;SDS011;25278;53.674;10.014;2022-12-07T18:16:36;15.50;;;6.57;;
39584;SDS011;25278;53.674;10.014;2022-12-07T18:19:03;11.70;;;5.40;;
39584;SDS011;25278;53.674;10.014;2022-12-07T18:21:30;15.07;;;6.30;;
39584;SDS011;25278;53.674;10.014;2022-12-07T18:23:56;15.25;;;4.70;;
39584;SDS011;25278;53.674;10.014;2022-12-07T18:26:27;9.23;;;4.47;;
39584;SDS011;25278;53.674;10.014;2022-12-07T18:28:54;13.00;;;5.10;;
39584;SDS011;25278;53.674;10.014;2022-12-07T18:31:22;12.63;;;5.38;;
39584;SDS011;25278;53.674;10.014;2022-12-07T18:33:47;9.23;;;5.18;;
39584;SDS011;25278;53.674;10.014;2022-12-07T18:36:14;10.98;;;6.45;;
39584;SDS011;25278;53.674;10.014;2022-12-07T18:38:42;8.52;;;5.25;;
39584;SDS011;25278;53.674;10.014;2022-12-07T18:41:08;14.80;;;5.57;;
39584;SDS011;25278;53.674;10.014;2022-12-07T18:43:35;10.60;;;6.43;;
39584;SDS011;25278;53.674;10.014;2022-12-07T18:46:01;10.93;;;5.30;;
39584;SDS011;25278;53.674;10.014;2022-12-07T18:48:37;11.90;;;6.63;;
39584;SDS011;25278;53.674;10.014;2022-12-07T18:51:03;11.57;;;5.18;;
39584;SDS011;25278;53.674;10.014;2022-12-07T18:53:30;8.73;;;4.88;;
39584;SDS011;25278;53.674;10.014;2022-12-07T18:56:03;10.80;;;5.03;;
39584;SDS011;25278;53.674;10.014;2022-12-07T18:58:35;10.85;;;4.50;;
39584;SDS011;25278;53.674;10.014;2022-12-07T19:01:01;10.27;;;5.20;;
39584;SDS011;25278;53.674;10.014;2022-12-07T19:03:27;10.68;;;5.85;;
39584;SDS011;25278;53.674;10.014;2022-12-07T19:05:52;14.98;;;6.32;;
39584;SDS011;25278;53.674;10.014;2022-12-07T19:08:21;15.23;;;5.78;;
39584;SDS011;25278;53.674;10.014;2022-12-07T19:10:47;13.32;;;7.30;;
39584;SDS011;25278;53.674;10.014;2022-12-07T19:13:12;14.48;;;8.73;;
39584;SDS011;25278;53.674;10.014;2022-12-07T19:15:39;13.90;;;8.65;;
39584;SDS011;25278;53.674;10.014;2022-12-07T19:18:05;16.40;;;9.38;;
39584;SDS011;25278;53.674;10.014;2022-12-07T19:20:31;15.70;;;9.52;;
39584;SDS011;25278;53.674;10.014;2022-12-07T19:22:56;13.55;;;8.95;;
39584;SDS011;25278;53.674;10.014;2022-12-07T19:25:22;15.65;;;8.13;;
39584;SDS011;25278;53.674;10.014;2022-12-07T19:27:47;19.27;;;9.70;;
39584;SDS011;25278;53.674;10.014;2022-12-07T19:30:13;16.67;;;9.80;;
39584;SDS011;25278;53.674;10.014;2022-12-07T19:32:39;17.10;;;10.70;;
39584;SDS011;25278;53.674;10.014;2022-12-07T19:35:04;17.08;;;11.57;;
39584;SDS011;25278;53.674;10.014;2022-12-07T19:37:30;15.13;;;9.93;;
39584;SDS011;25278;53.674;10.014;2022-12-07T19:39:55;20.83;;;9.20;;
39584;SDS011;25278;53.674;10.014;2022-12-07T19:42:21;14.10;;;8.82;;
39584;SDS011;25278;53.674;10.014;2022-12-07T19:44:47;12.02;;;8.05;;
39584;SDS011;25278;53.674;10.014;2022-12-07T19:47:13;13.85;;;9.20;;
39584;SDS011;25278;53.674;10.014;2022-12-07T19:49:41;27.13;;;15.00;;
39584;SDS011;25278;53.674;10.014;2022-12-07T19:52:07;27.90;;;12.88;;
39584;SDS011;25278;53.674;10.014;2022-12-07T19:54:35;18.70;;;12.15;;
39584;SDS011;25278;53.674;10.014;2022-12-07T19:57:01;15.38;;;11.07;;
39584;SDS011;25278;53.674;10.014;2022-12-07T19:59:28;16.70;;;10.10;;
39584;SDS011;25278;53.674;10.014;2022-12-07T20:01:54;16.98;;;10.50;;
39584;SDS011;25278;53.674;10.014;2022-12-07T20:04:21;21.25;;;10.18;;
39584;SDS011;25278;53.674;10.014;2022-12-07T20:06:52;14.57;;;9.77;;
39584;SDS011;25278;53.674;10.014;2022-12-07T20:09:19;18.05;;;8.30;;
39584;SDS011;25278;53.674;10.014;2022-12-07T20:11:45;17.08;;;9.18;;
39584;SDS011;25278;53.674;10.014;2022-12-07T20:14:30;14.10;;;7.97;;
39584;SDS011;25278;53.674;10.014;2022-12-07T20:16:55;20.02;;;10.65;;
39584;SDS011;25278;53.674;10.014;2022-12-07T20:19:21;15.38;;;9.05;;
39584;SDS011;25278;53.674;10.014;2022-12-07T20:21:48;13.52;;;9.50;;